Terminal Aerodrome Forecast
Issued by NWS

Home | Current Version | Previous Version | Text Only | Print | Product List | Glossary On
Versions: 1 2 3 4 5 6 7 8 9 10 11 12 13 14 15 16 17 18 19 20 21 22 23 24 25 26
000
FTUS44 KEWX 230540
TAFSSF
TAF
KSSF 230540Z 2306/2406 11010KT P6SM BKN013 OVC022
     FM230800 14005KT 5SM BR OVC006
     FM231500 15009KT 6SM BR VCSH OVC015
     FM232000 15013KT P6SM VCTS BKN030CB BKN050
     FM240200 12006KT 3SM TSRA BR OVC015CB=

USA.gov is the U.S. government's official web portal to all federal, state and local government web resources and services.